Time;durP1;ratioP1;P1;durP2;ratioP2;P2;SDS_P1;SDS_P2;PMS_P1;PMS_P2;Temp;Humidity;BMP_temperature;BMP_pressure;BME280_temperature;BME280_humidity;BME280_pressure;Samples;Min_cycle;Max_cycle;Signal;HPM_P1;HPM_P2
2021/12/14 00:02:13;;;;;;;7.00;3.17;;;8.20;99.70;;;;;;5040338;28;20025;-50
2021/12/14 00:04:40;;;;;;;5.60;2.53;;;8.20;99.70;;;;;;5036245;28;20040;-50
2021/12/14 00:07:12;;;;;;;3.80;2.58;;;8.20;99.70;;;;;;5041184;28;20048;-50
2021/12/14 00:09:41;;;;;;;7.60;3.17;;;8.20;99.80;;;;;;5041085;28;20025;-50
2021/12/14 00:17:30;;;;;;;7.03;3.58;;;8.20;99.70;;;;;;5040827;28;20038;-50
2021/12/14 00:19:59;;;;;;;8.27;3.03;;;8.20;99.70;;;;;;5036905;28;20279;-50
2021/12/14 00:22:36;;;;;;;6.70;2.92;;;8.20;99.70;;;;;;5039118;28;20385;-50
2021/12/14 00:25:05;;;;;;;4.40;2.83;;;8.20;99.70;;;;;;5031657;28;20111;-50
2021/12/14 00:27:32;;;;;;;5.10;2.60;;;8.20;99.70;;;;;;5041163;28;20029;-50
2021/12/14 00:30:02;;;;;;;7.45;3.70;;;8.20;99.70;;;;;;5042635;28;20053;-50
2021/12/14 00:32:30;;;;;;;;;;;8.20;99.80;;;;;;5037610;28;20483;-50
2021/12/14 00:34:59;;;;;;;7.68;3.70;;;8.20;99.70;;;;;;5036733;28;19908;-50
2021/12/14 00:37:35;;;;;;;8.55;3.40;;;8.20;99.80;;;;;;5037033;28;20116;-50
2021/12/14 00:40:12;;;;;;;9.43;3.20;;;8.20;99.70;;;;;;5041433;28;20454;-50
2021/12/14 00:42:38;;;;;;;6.50;3.70;;;8.20;99.80;;;;;;5032223;28;20034;-50
2021/12/14 00:45:04;;;;;;;7.63;3.13;;;8.20;99.70;;;;;;5041436;28;20358;-50
2021/12/14 00:47:30;;;;;;;6.63;3.08;;;8.20;99.70;;;;;;5041393;28;20021;-50
2021/12/14 00:49:56;;;;;;;6.25;3.08;;;8.20;99.70;;;;;;5031811;28;20449;-50
2021/12/14 00:52:22;;;;;;;7.57;3.20;;;8.20;99.70;;;;;;5037814;28;20045;-50
2021/12/14 00:54:48;;;;;;;7.38;3.10;;;8.20;99.70;;;;;;5033774;28;20025;-50
2021/12/14 00:57:14;;;;;;;7.68;3.13;;;8.20;99.70;;;;;;5037964;28;20476;-50
2021/12/14 00:59:40;;;;;;;6.43;2.88;;;8.20;99.70;;;;;;5043263;28;20025;-50
2021/12/14 01:02:12;;;;;;;9.90;3.10;;;8.20;99.70;;;;;;5040217;28;20028;-50
2021/12/14 01:04:53;;;;;;;6.30;3.05;;;8.20;99.70;;;;;;5031484;28;20452;-50
2021/12/14 01:07:23;;;;;;;6.25;2.95;;;8.20;99.70;;;;;;5035493;28;20083;-50
2021/12/14 01:09:51;;;;;;;4.68;2.20;;;8.20;99.90;;;;;;5041705;28;20021;-50
2021/12/14 01:12:33;;;;;;;5.35;2.38;;;8.20;99.60;;;;;;5041784;28;20502;-50
2021/12/14 01:15:23;;;;;;;6.25;2.67;;;8.20;99.70;;;;;;5034145;28;20033;-50
2021/12/14 01:18:03;;;;;;;7.50;2.87;;;8.20;99.70;;;;;;5037375;28;20030;-50
2021/12/14 01:20:37;;;;;;;6.68;2.30;;;8.20;99.70;;;;;;5037751;28;20029;-50
2021/12/14 01:23:14;;;;;;;5.13;2.45;;;8.20;99.60;;;;;;5038095;28;20340;-50
2021/12/14 01:25:41;;;;;;;6.20;2.42;;;8.20;99.60;;;;;;5034445;28;20035;-50
2021/12/14 01:28:12;;;;;;;10.25;2.53;;;8.20;99.70;;;;;;5042658;28;20461;-50
2021/12/14 01:31:17;;;;;;;5.18;2.30;;;8.20;99.70;;;;;;5040154;28;20025;-50
2021/12/14 01:33:47;;;;;;;5.60;2.33;;;8.20;99.70;;;;;;5033163;28;20037;-50
2021/12/14 01:41:58;;;;;;;9.25;2.97;;;8.20;99.60;;;;;;5037738;28;20524;-50
2021/12/14 01:44:30;;;;;;;7.75;2.65;;;8.20;99.60;;;;;;5034187;28;20446;-50
2021/12/14 01:47:08;;;;;;;4.53;2.20;;;8.20;99.70;;;;;;5035974;28;20451;-50
2021/12/14 01:49:34;;;;;;;5.63;2.55;;;8.20;99.60;;;;;;5031490;28;20382;-50
2021/12/14 01:52:05;;;;;;;6.70;2.63;;;8.20;99.60;;;;;;5038460;28;20033;-50
2021/12/14 01:54:36;;;;;;;6.15;3.30;;;8.20;99.60;;;;;;5035410;28;20067;-50
2021/12/14 01:57:05;;;;;;;5.25;2.50;;;8.20;99.60;;;;;;5033930;28;20029;-50
2021/12/14 01:59:36;;;;;;;3.15;2.42;;;8.20;99.60;;;;;;5033171;28;20276;-50
2021/12/14 02:02:20;;;;;;;3.08;1.67;;;8.20;99.60;;;;;;5037865;28;20079;-50
2021/12/14 02:04:49;;;;;;;5.50;2.72;;;8.20;99.60;;;;;;5031723;28;20429;-50
2021/12/14 02:07:18;;;;;;;4.25;2.65;;;8.20;99.60;;;;;;5036008;28;20029;-50
2021/12/14 02:09:48;;;;;;;4.13;2.65;;;8.20;99.60;;;;;;5036909;28;20336;-50
2021/12/14 02:12:19;;;;;;;;;;;8.20;99.50;;;;;;5039762;28;20048;-50
2021/12/14 02:14:46;;;;;;;4.70;2.50;;;8.20;99.50;;;;;;5037802;28;19996;-50
2021/12/14 02:17:15;;;;;;;4.97;2.10;;;8.20;99.60;;;;;;5040292;28;20025;-50
2021/12/14 02:19:42;;;;;;;6.45;2.92;;;8.20;99.60;;;;;;5031091;28;20099;-50
2021/12/14 02:22:09;;;;;;;4.50;2.25;;;8.20;99.50;;;;;;5039254;28;20021;-50
2021/12/14 02:24:36;;;;;;;6.50;2.85;;;8.20;99.50;;;;;;5041836;28;20028;-50
2021/12/14 02:27:02;;;;;;;6.47;2.65;;;8.20;99.50;;;;;;5038476;28;20021;-50
2021/12/14 02:29:36;;;;;;;5.75;2.50;;;8.20;99.90;;;;;;5037572;28;20502;-50
2021/12/14 02:32:11;;;;;;;6.40;2.20;;;8.20;99.50;;;;;;5041132;28;20148;-50
2021/12/14 02:34:49;;;;;;;6.53;2.42;;;8.20;99.60;;;;;;5029569;28;20032;-50
2021/12/14 02:37:19;;;;;;;7.35;3.05;;;8.20;99.50;;;;;;5038798;28;20080;-50
2021/12/14 02:42:19;;;;;;;7.18;2.67;;;8.20;99.60;;;;;;5034944;28;20025;-50
2021/12/14 02:44:48;;;;;;;6.85;2.03;;;8.20;99.50;;;;;;5039659;28;20413;-50
2021/12/14 02:47:16;;;;;;;2.67;2.25;;;8.20;99.50;;;;;;5038337;28;20491;-51
2021/12/14 02:49:43;;;;;;;5.00;2.08;;;8.20;99.50;;;;;;5032395;28;20082;-50
2021/12/14 02:52:24;;;;;;;4.55;2.42;;;8.20;99.30;;;;;;5033251;28;20041;-50
2021/12/14 02:54:53;;;;;;;3.38;1.70;;;8.20;99.50;;;;;;5033334;28;20030;-50
2021/12/14 02:57:26;;;;;;;6.50;2.53;;;8.10;99.40;;;;;;5039981;28;20128;-51
2021/12/14 02:59:53;;;;;;;4.60;2.60;;;8.10;99.50;;;;;;5039227;28;20022;-51
2021/12/14 03:02:25;;;;;;;8.68;2.40;;;8.10;99.40;;;;;;5036781;28;20056;-50
2021/12/14 03:04:54;;;;;;;5.68;1.75;;;8.10;99.50;;;;;;5034543;28;20030;-50
2021/12/14 03:07:25;;;;;;;6.30;3.33;;;8.10;99.40;;;;;;5033734;28;20036;-50
2021/12/14 03:10:17;;;;;;;5.65;2.72;;;8.10;99.40;;;;;;5042966;28;20350;-51
2021/12/14 03:12:44;;;;;;;6.43;2.55;;;8.10;99.40;;;;;;5037215;28;20049;-50
2021/12/14 03:15:24;;;;;;;7.50;3.72;;;8.10;99.50;;;;;;5042462;28;20067;-50
2021/12/14 03:17:53;;;;;;;9.15;3.13;;;8.10;99.40;;;;;;5032334;28;20025;-50
2021/12/14 03:20:21;;;;;;;5.40;2.97;;;8.10;99.40;;;;;;5034036;28;20109;-50
2021/12/14 03:22:48;;;;;;;6.68;2.30;;;8.10;99.40;;;;;;5037664;28;20079;-50
2021/12/14 03:25:18;;;;;;;10.85;4.20;;;8.20;99.50;;;;;;5043789;28;20055;-50
2021/12/14 03:27:44;;;;;;;6.50;2.88;;;8.10;99.40;;;;;;5037810;28;20450;-50
2021/12/14 03:30:33;;;;;;;8.13;2.72;;;8.10;99.30;;;;;;5044750;28;20033;-50
2021/12/14 03:33:17;;;;;;;8.98;3.08;;;8.10;99.40;;;;;;5033405;28;20041;-50
2021/12/14 03:35:45;;;;;;;6.85;3.20;;;8.10;99.50;;;;;;5035027;28;20029;-50
2021/12/14 03:38:22;;;;;;;7.28;2.83;;;8.10;99.40;;;;;;5037353;28;20443;-50
2021/12/14 03:41:10;;;;;;;10.40;3.50;;;8.10;99.50;;;;;;5042708;28;20334;-50
2021/12/14 03:43:37;;;;;;;6.45;2.80;;;8.10;99.40;;;;;;5035716;28;20459;-50
2021/12/14 03:46:04;;;;;;;10.20;3.20;;;8.10;99.40;;;;;;5041421;28;20038;-50
2021/12/14 03:48:32;;;;;;;9.77;3.97;;;8.10;99.40;;;;;;5043981;28;20094;-50
2021/12/14 03:50:58;;;;;;;9.23;4.00;;;8.10;99.40;;;;;;5034490;28;20423;-50
2021/12/14 03:53:24;;;;;;;5.18;3.13;;;8.10;99.40;;;;;;5039414;28;20091;-50
2021/12/14 03:56:04;;;;;;;8.65;2.85;;;8.10;99.40;;;;;;5037386;28;20029;-50
2021/12/14 03:58:36;;;;;;;6.38;2.60;;;8.10;99.40;;;;;;5040702;28;20025;-50
2021/12/14 04:01:19;;;;;;;7.07;2.72;;;8.10;99.40;;;;;;5038722;28;20109;-50
2021/12/14 04:03:49;;;;;;;6.57;2.67;;;8.10;99.40;;;;;;5040570;28;20375;-50
2021/12/14 04:06:16;;;;;;;11.98;3.40;;;8.10;99.40;;;;;;5033703;28;20038;-50
2021/12/14 04:08:42;;;;;;;5.55;2.85;;;8.10;99.40;;;;;;5043083;28;20094;-50
2021/12/14 04:11:09;;;;;;;9.95;4.57;;;8.10;99.40;;;;;;5042560;28;20032;-50
2021/12/14 04:13:39;;;;;;;9.13;3.28;;;8.10;99.30;;;;;;5041470;28;20060;-50
2021/12/14 04:16:06;;;;;;;10.43;3.43;;;8.10;99.40;;;;;;5038284;28;20030;-50
2021/12/14 04:18:32;;;;;;;5.95;3.13;;;8.10;99.50;;;;;;5037431;28;20021;-50
2021/12/14 04:21:00;;;;;;;5.30;3.00;;;8.10;99.50;;;;;;5037799;28;20139;-50
2021/12/14 04:23:33;;;;;;;5.78;3.03;;;8.10;99.30;;;;;;5041809;28;20045;-50
2021/12/14 04:26:00;;;;;;;6.75;2.97;;;8.10;99.40;;;;;;5033484;28;20053;-50
2021/12/14 04:28:32;;;;;;;7.32;2.95;;;8.10;99.40;;;;;;5042862;28;20033;-50
2021/12/14 04:30:58;;;;;;;9.23;4.03;;;8.10;99.40;;;;;;5042626;28;20037;-50
2021/12/14 04:33:27;;;;;;;9.30;4.32;;;8.10;99.40;;;;;;5041395;28;20725;-50
2021/12/14 04:35:53;;;;;;;9.90;4.23;;;8.10;99.40;;;;;;5033913;28;20036;-50
2021/12/14 04:38:26;;;;;;;8.25;3.83;;;8.10;99.40;;;;;;5039872;28;20026;-50
2021/12/14 04:52:15;;;;;;;9.80;2.50;;;8.10;99.40;;;;;;5035104;28;20048;-50
2021/12/14 04:54:40;;;;;;;7.65;2.67;;;8.10;99.30;;;;;;5035887;28;20028;-50
2021/12/14 04:57:28;;;;;;;5.97;2.65;;;8.10;99.40;;;;;;5037934;28;20029;-50
2021/12/14 04:59:59;;;;;;;5.95;2.03;;;8.10;99.40;;;;;;5037122;28;20033;-50
2021/12/14 05:02:31;;;;;;;5.68;2.55;;;8.10;99.40;;;;;;5040827;28;20361;-50
2021/12/14 05:04:58;;;;;;;4.47;2.38;;;8.10;99.30;;;;;;5042960;28;20027;-50
2021/12/14 05:09:56;;;;;;;4.78;2.22;;;8.10;99.40;;;;;;5036922;28;20076;-50
2021/12/14 05:12:28;;;;;;;5.35;2.45;;;8.10;99.40;;;;;;5041226;28;20041;-50
2021/12/14 05:14:55;;;;;;;3.55;1.98;;;8.10;99.40;;;;;;5042106;28;20393;-50
2021/12/14 05:17:24;;;;;;;4.50;2.28;;;8.10;99.40;;;;;;5035166;28;20370;-50
2021/12/14 05:19:52;;;;;;;2.60;1.70;;;8.10;99.40;;;;;;5036605;28;20382;-50
2021/12/14 05:22:33;;;;;;;2.22;1.77;;;8.10;99.30;;;;;;5033295;28;20092;-50
2021/12/14 05:25:03;;;;;;;5.60;2.80;;;8.10;99.40;;;;;;5035718;28;20025;-50
2021/12/14 05:27:45;;;;;;;4.60;2.00;;;8.10;99.30;;;;;;5041186;28;20203;-50
2021/12/14 05:30:24;;;;;;;5.15;2.35;;;8.10;99.30;;;;;;5029961;28;20029;-50
2021/12/14 05:32:58;;;;;;;6.38;2.95;;;8.10;99.30;;;;;;5039732;28;20037;-50
2021/12/14 05:35:24;;;;;;;3.00;1.73;;;8.10;99.30;;;;;;5035075;28;20029;-50
2021/12/14 05:37:53;;;;;;;3.10;1.58;;;8.10;99.30;;;;;;5033657;28;20025;-50
2021/12/14 05:40:39;;;;;;;2.88;1.40;;;8.10;99.20;;;;;;5038466;28;20334;-49
2021/12/14 05:43:09;;;;;;;6.25;3.28;;;8.10;99.20;;;;;;5036925;28;20355;-50
2021/12/14 05:45:39;;;;;;;9.35;2.75;;;8.10;99.20;;;;;;5040167;28;20052;-50
2021/12/14 05:48:07;;;;;;;2.97;1.00;;;8.10;99.60;;;;;;5041589;28;20139;-50
2021/12/14 05:50:40;;;;;;;6.40;2.25;;;8.10;99.20;;;;;;5032920;28;20059;-50
2021/12/14 05:53:07;;;;;;;6.35;1.75;;;8.10;99.20;;;;;;5038602;28;20040;-50
2021/12/14 05:55:36;;;;;;;4.45;2.38;;;8.00;99.10;;;;;;5036244;28;20455;-50
2021/12/14 05:58:04;;;;;;;1.83;1.52;;;8.00;99.10;;;;;;5038293;28;20060;-50
2021/12/14 06:00:31;;;;;;;3.95;2.55;;;8.00;99.00;;;;;;5037432;28;20120;-50
2021/12/14 06:02:57;;;;;;;5.10;1.98;;;8.00;99.20;;;;;;5039568;28;20267;-50
2021/12/14 06:05:27;;;;;;;4.93;2.03;;;8.10;99.10;;;;;;5040898;28;20384;-50
2021/12/14 06:07:53;;;;;;;6.07;2.58;;;8.00;99.10;;;;;;5036601;28;20110;-50
2021/12/14 06:10:23;;;;;;;1.25;0.88;;;8.10;99.20;;;;;;5033104;28;20455;-50
2021/12/14 06:12:49;;;;;;;2.47;1.73;;;8.00;99.00;;;;;;5031877;28;20599;-50
2021/12/14 06:15:21;;;;;;;2.08;1.65;;;8.00;99.10;;;;;;5031769;28;20033;-49
2021/12/14 06:17:49;;;;;;;1.95;1.02;;;8.00;99.10;;;;;;5040121;28;20014;-50
2021/12/14 06:20:19;;;;;;;5.43;2.92;;;8.00;99.00;;;;;;5039700;28;20037;-50
2021/12/14 06:22:45;;;;;;;4.32;2.25;;;8.10;99.10;;;;;;5035016;28;20037;-50
2021/12/14 06:25:17;;;;;;;4.65;2.17;;;8.00;99.10;;;;;;5037924;28;20034;-50
2021/12/14 06:27:45;;;;;;;7.03;2.70;;;8.10;99.40;;;;;;5040383;28;20112;-49
2021/12/14 06:30:24;;;;;;;6.35;2.92;;;8.10;99.10;;;;;;5040121;28;20592;-50
2021/12/14 06:32:53;;;;;;;4.47;2.00;;;8.00;99.10;;;;;;5029504;28;20455;-50
2021/12/14 06:35:22;;;;;;;5.25;2.88;;;8.00;99.00;;;;;;5040089;28;20328;-50
2021/12/14 06:40:51;;;;;;;1.55;1.17;;;8.00;98.70;;;;;;5039430;28;20025;-50
2021/12/14 06:43:34;;;;;;;3.58;2.33;;;8.00;98.80;;;;;;5031501;28;20513;-50
2021/12/14 06:46:08;;;;;;;6.88;3.25;;;8.00;98.90;;;;;;5041584;28;20483;-50
2021/12/14 06:48:42;;;;;;;3.35;2.78;;;8.00;98.60;;;;;;5040047;28;20074;-50
2021/12/14 06:51:13;;;;;;;5.70;2.47;;;8.00;98.50;;;;;;5039538;28;20121;-51
2021/12/14 06:53:40;;;;;;;2.67;1.63;;;8.00;98.50;;;;;;5030045;28;20095;-50
2021/12/14 06:56:11;;;;;;;4.22;2.08;;;8.00;98.60;;;;;;5030035;28;20025;-50
2021/12/14 06:58:52;;;;;;;4.45;2.67;;;8.00;98.50;;;;;;5031752;28;20405;-50
2021/12/14 07:01:28;;;;;;;5.35;3.05;;;8.10;98.60;;;;;;5031104;28;20053;-50
2021/12/14 07:04:06;;;;;;;4.63;2.08;;;8.00;98.60;;;;;;5027789;28;20415;-50
2021/12/14 07:06:48;;;;;;;5.22;2.88;;;8.00;98.60;;;;;;5027373;28;20041;-50
2021/12/14 07:09:24;;;;;;;5.22;2.90;;;8.00;98.60;;;;;;5031858;28;20025;-50
2021/12/14 07:12:16;;;;;;;8.07;2.85;;;8.00;98.60;;;;;;5028776;28;20086;-50
2021/12/14 07:14:53;;;;;;;4.85;3.03;;;8.00;98.70;;;;;;5027390;28;20112;-50
2021/12/14 07:17:27;;;;;;;2.83;2.30;;;8.00;98.70;;;;;;5033506;28;20021;-50
2021/12/14 07:20:00;;;;;;;4.88;1.90;;;8.00;98.70;;;;;;5033416;28;20317;-50
2021/12/14 07:22:31;;;;;;;5.90;2.33;;;8.00;98.60;;;;;;5030256;28;20056;-50
2021/12/14 07:25:08;;;;;;;5.85;2.47;;;8.00;98.70;;;;;;5042557;28;20025;-51
2021/12/14 07:28:00;;;;;;;4.82;2.13;;;8.00;98.70;;;;;;5038068;28;20037;-50
2021/12/14 07:30:46;;;;;;;5.40;2.67;;;8.00;98.70;;;;;;5041689;28;20363;-50
2021/12/14 07:33:19;;;;;;;6.65;3.13;;;8.00;98.70;;;;;;5044565;28;20040;-50
2021/12/14 07:35:53;;;;;;;3.83;1.90;;;8.00;98.70;;;;;;5043593;28;20041;-50
2021/12/14 07:38:31;;;;;;;6.13;2.40;;;8.00;98.70;;;;;;5032672;28;20463;-50
2021/12/14 07:41:11;;;;;;;4.53;2.50;;;8.00;98.70;;;;;;5043636;28;20040;-50
2021/12/14 07:44:11;;;;;;;4.38;2.05;;;8.00;98.70;;;;;;5032768;28;20390;-50
2021/12/14 07:46:42;;;;;;;3.05;0.77;;;8.00;98.70;;;;;;5039614;28;20021;-50
2021/12/14 07:49:33;;;;;;;6.18;2.42;;;8.00;98.70;;;;;;5044412;28;20055;-50
2021/12/14 07:51:59;;;;;;;2.20;1.67;;;8.00;98.80;;;;;;5032666;28;20438;-50
2021/12/14 07:54:28;;;;;;;3.22;1.52;;;8.00;98.70;;;;;;5043587;28;20021;-50
2021/12/14 07:57:11;;;;;;;2.70;1.85;;;8.00;98.80;;;;;;5044238;28;20126;-50
2021/12/14 07:59:45;;;;;;;4.05;2.05;;;8.00;98.70;;;;;;5044329;28;20091;-50
2021/12/14 08:02:33;;;;;;;4.15;1.77;;;8.00;98.70;;;;;;5035617;28;20026;-50
2021/12/14 08:05:01;;;;;;;3.65;1.92;;;8.00;98.70;;;;;;5038862;28;20350;-50
2021/12/14 08:07:33;;;;;;;1.52;1.42;;;8.00;98.70;;;;;;5032784;28;20455;-50
2021/12/14 08:10:07;;;;;;;1.13;0.90;;;8.00;98.60;;;;;;5032894;28;20037;-50
2021/12/14 08:12:36;;;;;;;1.27;0.70;;;8.00;98.70;;;;;;5041699;28;20430;-50
2021/12/14 08:15:17;;;;;;;1.73;0.55;;;8.00;98.70;;;;;;5035980;28;20022;-50
2021/12/14 08:17:44;;;;;;;0.85;0.75;;;8.00;98.60;;;;;;5039611;28;20025;-50
2021/12/14 08:20:19;;;;;;;2.05;1.85;;;8.00;98.50;;;;;;5036820;28;20033;-50
2021/12/14 08:22:45;;;;;;;3.25;2.17;;;8.00;98.60;;;;;;5036941;28;20088;-50
2021/12/14 08:25:18;;;;;;;5.57;3.17;;;8.00;98.60;;;;;;5032455;28;20033;-50
2021/12/14 08:27:44;;;;;;;3.10;1.85;;;8.00;98.70;;;;;;5033573;28;20040;-50
2021/12/14 08:30:13;;;;;;;5.10;2.42;;;8.00;98.70;;;;;;5036260;28;20386;-50
2021/12/14 08:32:41;;;;;;;4.28;2.05;;;8.00;98.70;;;;;;5036109;28;20118;-50
2021/12/14 08:35:10;;;;;;;4.13;1.73;;;8.10;98.80;;;;;;5036718;28;20032;-50
2021/12/14 08:37:42;;;;;;;3.45;2.08;;;8.00;98.60;;;;;;5029132;28;20064;-50
2021/12/14 08:40:15;;;;;;;6.07;2.35;;;8.00;98.70;;;;;;5035284;28;20340;-50
2021/12/14 08:43:20;;;;;;;6.35;3.08;;;8.00;98.80;;;;;;5037806;28;20476;-50
2021/12/14 08:45:46;;;;;;;4.78;3.03;;;8.00;98.70;;;;;;5032212;28;20095;-50
2021/12/14 08:48:32;;;;;;;4.85;2.28;;;8.00;98.70;;;;;;5036048;28;20108;-51
2021/12/14 08:51:04;;;;;;;4.55;1.58;;;8.00;98.70;;;;;;5033582;28;20459;-50
2021/12/14 08:53:34;;;;;;;4.30;2.35;;;8.00;98.80;;;;;;5035592;28;20370;-50
2021/12/14 08:56:03;;;;;;;3.92;2.35;;;8.00;98.70;;;;;;5035372;28;20116;-50
2021/12/14 08:58:29;;;;;;;2.55;1.80;;;8.00;98.70;;;;;;5033407;28;20037;-51
2021/12/14 09:01:07;;;;;;;2.70;1.70;;;8.00;98.70;;;;;;5034577;28;20029;-50
2021/12/14 09:03:40;;;;;;;2.47;2.13;;;8.00;98.60;;;;;;5042827;28;20049;-51
2021/12/14 09:06:10;;;;;;;3.58;2.15;;;8.00;98.60;;;;;;5037497;28;20033;-51
2021/12/14 09:08:36;;;;;;;0.45;0.40;;;8.00;98.70;;;;;;5029560;28;20061;-51
2021/12/14 09:11:03;;;;;;;1.40;1.27;;;8.00;98.60;;;;;;5040348;28;20061;-51
2021/12/14 09:13:29;;;;;;;3.63;2.30;;;8.00;98.60;;;;;;5043720;28;20068;-51
2021/12/14 09:16:04;;;;;;;4.00;1.95;;;8.00;98.70;;;;;;5042626;28;20076;-51
2021/12/14 09:18:33;;;;;;;2.15;1.70;;;8.00;98.70;;;;;;5027036;28;20060;-51
2021/12/14 09:21:09;;;;;;;4.93;2.70;;;8.10;98.80;;;;;;5042666;28;20112;-51
2021/12/14 09:23:42;;;;;;;8.90;3.05;;;8.00;98.70;;;;;;5040719;28;20033;-51
2021/12/14 09:26:13;;;;;;;5.25;2.35;;;8.10;98.80;;;;;;5033893;28;20087;-50
2021/12/14 09:28:39;;;;;;;3.88;2.42;;;8.10;98.80;;;;;;5036149;28;20083;-50
2021/12/14 09:31:09;;;;;;;4.35;2.63;;;8.10;98.90;;;;;;5041424;28;20033;-51
2021/12/14 09:33:38;;;;;;;6.85;1.92;;;8.10;98.80;;;;;;5039152;28;20064;-51
2021/12/14 09:36:11;;;;;;;13.75;2.92;;;8.10;98.70;;;;;;5035874;28;20108;-50
2021/12/14 09:39:06;;;;;;;4.93;1.85;;;8.10;98.80;;;;;;5031588;28;20051;-51
2021/12/14 09:41:33;;;;;;;2.90;1.75;;;8.10;98.70;;;;;;5041209;28;20044;-51
2021/12/14 09:44:04;;;;;;;3.70;1.33;;;8.10;98.70;;;;;;5029075;28;20079;-50
2021/12/14 09:46:31;;;;;;;2.70;1.95;;;8.10;98.70;;;;;;5033798;28;20038;-51
2021/12/14 09:49:02;;;;;;;1.58;1.40;;;8.10;98.80;;;;;;5043291;28;20033;-51
2021/12/14 09:51:39;;;;;;;5.20;2.58;;;8.10;98.80;;;;;;5027450;28;20048;-50
2021/12/14 09:54:08;;;;;;;1.33;1.23;;;8.10;98.80;;;;;;5033197;28;20080;-51
2021/12/14 09:56:40;;;;;;;5.47;2.63;;;8.10;98.70;;;;;;5041043;28;20112;-51
2021/12/14 09:59:07;;;;;;;1.65;1.08;;;8.10;98.70;;;;;;5044734;28;20131;-51
2021/12/14 10:01:38;;;;;;;7.72;2.35;;;8.10;98.70;;;;;;5029684;28;20041;-51
2021/12/14 10:04:09;;;;;;;3.45;2.00;;;8.10;98.70;;;;;;5039392;28;20057;-51
2021/12/14 10:06:36;;;;;;;5.07;2.90;;;8.20;98.70;;;;;;5043198;28;20041;-51
2021/12/14 10:09:10;;;;;;;4.93;2.25;;;8.20;98.80;;;;;;5039946;28;20370;-50
2021/12/14 10:14:23;;;;;;;4.53;2.35;;;8.20;98.90;;;;;;5040619;28;20037;-50
2021/12/14 10:16:50;;;;;;;4.80;2.80;;;8.20;98.90;;;;;;5045806;28;20103;-50
2021/12/14 10:19:20;;;;;;;6.95;3.08;;;8.20;98.90;;;;;;5036730;28;20037;-51
2021/12/14 10:21:52;;;;;;;6.07;3.00;;;8.20;99.00;;;;;;5040977;28;20021;-50
2021/12/14 10:24:18;;;;;;;8.07;4.10;;;8.20;99.00;;;;;;5043075;28;20113;-50
2021/12/14 10:26:48;;;;;;;7.85;3.38;;;8.20;99.00;;;;;;5036157;28;20083;-50
2021/12/14 10:29:14;;;;;;;11.88;4.78;;;8.20;99.00;;;;;;5038465;28;20039;-50
2021/12/14 10:31:48;;;;;;;7.53;4.47;;;8.20;99.00;;;;;;5043196;28;20029;-50
2021/12/14 10:34:18;;;;;;;7.10;2.92;;;8.20;98.90;;;;;;5042151;28;20029;-50
2021/12/14 10:36:51;;;;;;;11.83;5.73;;;8.20;98.90;;;;;;5038368;28;20029;-51
2021/12/14 10:39:44;;;;;;;19.95;5.80;;;8.20;98.90;;;;;;5035276;28;20029;-51
2021/12/14 10:44:59;;;;;;;6.40;3.30;;;8.20;98.90;;;;;;5041393;28;20085;-50
2021/12/14 10:47:27;;;;;;;11.80;5.32;;;8.20;99.00;;;;;;5038405;28;20048;-50
2021/12/14 10:49:54;;;;;;;12.82;5.55;;;8.20;98.90;;;;;;5035053;28;20451;-50
2021/12/14 10:52:24;;;;;;;13.65;7.00;;;8.20;98.90;;;;;;5044661;28;20119;-50
2021/12/14 10:55:05;;;;;;;20.92;7.43;;;8.30;99.00;;;;;;5037129;28;20060;-50
2021/12/14 10:57:32;;;;;;;9.57;3.90;;;8.20;99.00;;;;;;5039588;28;20219;-50
2021/12/14 10:59:59;;;;;;;23.67;8.15;;;8.30;99.10;;;;;;5033510;28;20032;-50
2021/12/14 11:02:27;;;;;;;18.02;7.55;;;8.30;99.00;;;;;;5040246;28;20025;-50
2021/12/14 11:04:58;;;;;;;11.30;5.75;;;8.30;99.10;;;;;;5046462;28;20112;-50
2021/12/14 11:07:38;;;;;;;21.58;8.38;;;8.30;99.00;;;;;;5046166;28;20080;-50
2021/12/14 11:10:10;;;;;;;13.07;6.40;;;8.30;99.10;;;;;;5033860;28;20115;-50
2021/12/14 11:12:39;;;;;;;15.30;6.70;;;8.30;99.10;;;;;;5041713;28;20337;-50
2021/12/14 11:15:11;;;;;;;24.63;6.65;;;8.30;99.10;;;;;;5038469;28;20028;-51
2021/12/14 11:21:05;;;;;;;14.43;6.83;;;8.30;99.10;;;;;;5039120;28;20442;-51
2021/12/14 11:23:40;;;;;;;16.90;6.72;;;8.30;99.10;;;;;;5032933;28;20837;-50
2021/12/14 11:26:09;;;;;;;28.05;9.13;;;8.30;99.00;;;;;;5032224;28;20064;-50
2021/12/14 11:28:39;;;;;;;15.75;6.13;;;8.30;99.20;;;;;;5041136;28;20029;-50
2021/12/14 11:31:11;;;;;;;19.38;7.68;;;8.30;99.30;;;;;;5039482;28;20490;-50
2021/12/14 11:33:42;;;;;;;24.25;9.70;;;8.30;99.40;;;;;;5044469;28;20091;-50
2021/12/14 11:36:17;;;;;;;21.42;7.57;;;8.30;99.40;;;;;;5038692;28;20026;-50
2021/12/14 11:38:49;;;;;;;20.98;9.25;;;8.30;99.50;;;;;;5037266;28;20038;-50
2021/12/14 11:41:32;;;;;;;20.23;8.85;;;8.30;99.50;;;;;;5029533;28;20033;-50
2021/12/14 11:44:09;;;;;;;27.35;8.80;;;8.40;99.70;;;;;;5041777;28;20358;-50
2021/12/14 11:46:49;;;;;;;18.23;7.72;;;8.40;99.60;;;;;;5036624;28;20026;-50
2021/12/14 11:49:15;;;;;;;25.90;9.98;;;8.40;99.60;;;;;;5040679;28;20054;-50
2021/12/14 11:51:42;;;;;;;18.05;7.50;;;8.40;99.60;;;;;;5041521;28;20060;-51
2021/12/14 11:54:08;;;;;;;24.40;9.63;;;8.40;99.60;;;;;;5030918;28;20372;-51
2021/12/14 11:56:33;;;;;;;23.20;9.65;;;8.40;99.60;;;;;;5041028;28;20022;-50
2021/12/14 11:59:04;;;;;;;13.00;7.40;;;8.40;99.50;;;;;;5038120;28;20358;-50
2021/12/14 12:01:35;;;;;;;13.98;7.13;;;8.40;99.50;;;;;;5042010;28;20420;-50
2021/12/14 12:04:34;;;;;;;16.15;6.88;;;8.40;99.60;;;;;;5036251;28;20025;-51
2021/12/14 12:09:48;;;;;;;23.35;6.95;;;8.40;99.60;;;;;;5027721;28;20033;-50
2021/12/14 12:12:28;;;;;;;5.15;3.40;;;8.40;99.50;;;;;;5038980;28;20366;-50
2021/12/14 12:14:59;;;;;;;16.38;7.55;;;8.40;99.60;;;;;;5040738;28;20017;-50
2021/12/14 12:17:41;;;;;;;21.48;9.00;;;8.50;99.50;;;;;;5042876;28;20028;-51
2021/12/14 12:20:27;;;;;;;14.18;5.25;;;8.40;99.50;;;;;;5038209;28;20037;-50
2021/12/14 12:23:07;;;;;;;15.57;7.70;;;8.40;99.40;;;;;;5040844;28;20021;-50
2021/12/14 12:25:33;;;;;;;17.35;8.05;;;8.50;99.60;;;;;;5037680;28;20065;-51
2021/12/14 12:28:10;;;;;;;22.17;9.90;;;8.50;99.50;;;;;;5041102;28;20025;-51
2021/12/14 12:31:04;;;;;;;12.30;5.57;;;8.50;99.60;;;;;;5033750;28;20505;-51
2021/12/14 12:33:37;;;;;;;19.00;8.13;;;8.50;99.70;;;;;;5037777;28;20345;-51
2021/12/14 12:36:15;;;;;;;16.75;7.57;;;8.50;99.80;;;;;;5041466;28;20025;-51
2021/12/14 12:38:55;;;;;;;20.38;9.50;;;8.50;99.70;;;;;;5034308;28;20116;-51
2021/12/14 12:41:33;;;;;;;27.35;10.02;;;8.50;99.80;;;;;;5038686;28;20140;-51
2021/12/14 12:44:14;;;;;;;23.92;9.55;;;8.50;99.90;;;;;;5038007;28;20463;-51
2021/12/14 12:46:48;;;;;;;24.08;10.90;;;8.50;99.90;;;;;;5039987;28;20026;-50
2021/12/14 12:49:25;;;;;;;23.15;9.80;;;8.50;99.90;;;;;;5034155;28;20073;-51
2021/12/14 12:52:07;;;;;;;29.88;11.15;;;8.50;99.90;;;;;;5039359;28;20332;-51
2021/12/14 12:54:41;;;;;;;25.33;9.75;;;8.50;99.90;;;;;;5031596;28;20033;-50
2021/12/14 12:57:20;;;;;;;18.10;8.68;;;8.50;99.90;;;;;;5039425;28;20025;-51
2021/12/14 12:59:58;;;;;;;25.25;10.25;;;8.50;99.90;;;;;;5036548;28;20033;-51
2021/12/14 13:02:34;;;;;;;29.27;9.68;;;8.50;99.90;;;;;;5036344;28;20174;-51
2021/12/14 13:05:15;;;;;;;20.10;10.02;;;8.50;99.90;;;;;;5034694;28;20025;-51
2021/12/14 13:07:49;;;;;;;25.60;10.02;;;8.50;99.90;;;;;;5037184;28;20370;-50
2021/12/14 13:10:27;;;;;;;20.90;9.25;;;8.50;99.90;;;;;;5034116;28;20630;-51
2021/12/14 13:13:00;;;;;;;23.88;8.82;;;8.50;99.90;;;;;;5036609;28;20037;-51
2021/12/14 13:15:49;;;;;;;16.90;8.25;;;8.60;99.90;;;;;;5040364;28;20025;-51
2021/12/14 13:18:21;;;;;;;19.58;9.27;;;8.60;99.90;;;;;;5039296;28;20409;-50
2021/12/14 13:20:49;;;;;;;24.25;8.80;;;8.60;99.90;;;;;;5035138;28;20080;-51
2021/12/14 13:23:15;;;;;;;18.63;7.63;;;8.60;99.90;;;;;;5042905;28;20029;-51
2021/12/14 13:25:43;;;;;;;10.55;4.55;;;8.60;99.90;;;;;;5030723;28;20331;-51
2021/12/14 13:28:10;;;;;;;13.90;5.18;;;8.60;99.90;;;;;;5041342;28;20025;-51
2021/12/14 13:30:36;;;;;;;14.82;5.72;;;8.60;99.90;;;;;;5041463;28;20029;-50
2021/12/14 13:33:02;;;;;;;10.50;5.15;;;8.60;99.90;;;;;;5026824;28;20094;-51
2021/12/14 13:35:32;;;;;;;14.23;6.13;;;8.60;99.90;;;;;;5036622;28;20315;-51
2021/12/14 13:38:05;;;;;;;16.88;6.72;;;8.60;99.90;;;;;;5043025;28;20321;-51
2021/12/14 13:40:38;;;;;;;19.02;8.38;;;8.60;99.90;;;;;;5032707;28;20440;-51
2021/12/14 13:43:09;;;;;;;21.40;7.95;;;8.60;99.90;;;;;;5034459;28;20037;-50
2021/12/14 13:45:37;;;;;;;18.75;8.63;;;8.60;99.90;;;;;;5029346;28;20048;-51
2021/12/14 13:48:05;;;;;;;20.38;6.68;;;8.60;99.90;;;;;;5041194;28;20345;-51
2021/12/14 13:50:36;;;;;;;21.48;9.40;;;8.60;99.90;;;;;;5036260;28;20025;-51
2021/12/14 13:53:02;;;;;;;20.77;8.18;;;8.70;99.90;;;;;;5036012;28;20120;-51
2021/12/14 13:55:33;;;;;;;21.00;8.95;;;8.60;99.90;;;;;;5028838;28;20475;-51
2021/12/14 13:58:30;;;;;;;21.85;7.55;;;8.70;99.90;;;;;;5034709;28;20029;-51
2021/12/14 14:01:10;;;;;;;19.17;7.85;;;8.60;99.90;;;;;;4996968;28;20038;-51
2021/12/14 14:03:39;;;;;;;;;;;8.60;99.90;;;;;;4995259;28;20038;-51
2021/12/14 14:06:12;;;;;;;19.70;9.20;;;8.70;99.90;;;;;;4998277;28;20359;-51